createdAt,value
2023-01-23T00:00:28.072Z,13.60
2023-01-23T00:03:00.189Z,16.65
2023-01-23T00:05:32.363Z,13.80
2023-01-23T00:08:04.586Z,16.40
2023-01-23T00:10:39.048Z,15.05
2023-01-23T00:13:11.075Z,15.13
2023-01-23T00:15:43.325Z,13.18
2023-01-23T00:18:15.649Z,15.27
2023-01-23T00:20:48.013Z,15.43
2023-01-23T00:23:20.062Z,15.35
2023-01-23T00:25:52.035Z,13.45
2023-01-23T00:28:24.039Z,16.17
2023-01-23T00:31:07.249Z,14.45
2023-01-23T00:33:42.982Z,14.27
2023-01-23T00:36:16.036Z,15.00
2023-01-23T00:38:48.120Z,13.88
2023-01-23T00:41:21.187Z,13.50
2023-01-23T00:43:53.282Z,14.70
2023-01-23T00:46:25.921Z,15.32
2023-01-23T00:48:58.115Z,17.23
2023-01-23T00:51:30.520Z,14.60
2023-01-23T00:54:03.317Z,13.68
2023-01-23T00:56:35.399Z,15.98
2023-01-23T00:59:07.420Z,16.30
2023-01-23T01:01:39.982Z,15.00
2023-01-23T01:04:12.199Z,15.38
2023-01-23T01:06:44.307Z,18.05
2023-01-23T01:09:16.340Z,16.35
2023-01-23T01:11:48.417Z,16.73
2023-01-23T01:14:20.667Z,16.17
2023-01-23T01:16:52.707Z,17.75
2023-01-23T01:19:24.700Z,17.05
2023-01-23T01:21:59.040Z,16.83
2023-01-23T01:24:31.045Z,17.27
2023-01-23T01:27:03.282Z,15.05
2023-01-23T01:29:35.264Z,16.15
2023-01-23T01:32:07.234Z,14.20
2023-01-23T01:34:39.184Z,15.13
2023-01-23T01:37:11.385Z,15.88
2023-01-23T01:39:43.651Z,15.57
2023-01-23T01:42:15.631Z,16.23
2023-01-23T01:45:01.503Z,15.55
2023-01-23T01:47:34.854Z,14.90
2023-01-23T01:50:07.055Z,18.00
2023-01-23T01:52:43.468Z,18.67
2023-01-23T01:55:15.706Z,17.02
2023-01-23T01:57:49.988Z,15.45
2023-01-23T02:00:25.096Z,18.10
2023-01-23T02:03:03.557Z,14.73
2023-01-23T02:05:55.498Z,16.65
2023-01-23T02:09:02.109Z,15.50
2023-01-23T02:11:40.773Z,17.15
2023-01-23T02:14:14.548Z,14.40
2023-01-23T02:16:51.060Z,13.75
2023-01-23T02:19:49.990Z,19.17
2023-01-23T02:22:53.974Z,14.20
2023-01-23T02:25:45.531Z,13.85
2023-01-23T02:28:43.956Z,15.35
2023-01-23T02:31:18.775Z,14.85
2023-01-23T02:33:53.558Z,17.23
2023-01-23T02:36:30.681Z,14.73
2023-01-23T02:39:04.661Z,13.48
2023-01-23T02:41:44.663Z,13.13
2023-01-23T02:44:31.883Z,16.98
2023-01-23T02:47:11.588Z,15.70
2023-01-23T02:49:44.113Z,14.95
2023-01-23T02:52:16.416Z,17.13
2023-01-23T02:54:48.435Z,15.25
2023-01-23T02:57:20.548Z,13.10
2023-01-23T03:00:10.889Z,12.93
2023-01-23T03:02:58.316Z,16.95
2023-01-23T03:05:30.343Z,13.52
2023-01-23T03:08:02.342Z,17.80
2023-01-23T03:10:34.931Z,16.52
2023-01-23T03:13:08.590Z,16.15
2023-01-23T03:15:43.079Z,15.02
2023-01-23T03:18:15.063Z,12.90
2023-01-23T03:20:46.983Z,14.95
2023-01-23T03:23:19.088Z,17.25
2023-01-23T03:25:58.409Z,15.48
2023-01-23T03:28:48.907Z,16.83
2023-01-23T03:31:40.723Z,16.20
2023-01-23T03:34:12.866Z,16.52
2023-01-23T03:36:45.650Z,15.77
2023-01-23T03:39:36.555Z,15.35
2023-01-23T03:42:28.422Z,16.20
2023-01-23T03:45:01.699Z,15.88
2023-01-23T03:47:34.865Z,14.20
2023-01-23T03:50:07.820Z,16.67
2023-01-23T03:52:40.342Z,16.88
2023-01-23T03:55:13.199Z,16.92
2023-01-23T03:57:45.228Z,19.85
2023-01-23T04:00:18.100Z,21.75
2023-01-23T04:02:50.708Z,21.27
2023-01-23T04:05:22.760Z,17.05
2023-01-23T04:07:54.749Z,17.08
2023-01-23T04:10:26.989Z,16.45
2023-01-23T04:13:00.027Z,16.67
2023-01-23T04:15:33.413Z,15.30
2023-01-23T04:18:05.419Z,15.40
2023-01-23T04:20:37.615Z,16.60
2023-01-23T04:23:09.675Z,18.38
2023-01-23T04:25:41.647Z,18.95
2023-01-23T04:28:13.704Z,19.23
2023-01-23T04:30:46.128Z,22.10
2023-01-23T04:33:19.846Z,19.75
2023-01-23T04:36:03.122Z,19.23
2023-01-23T04:38:36.985Z,18.30
2023-01-23T04:41:27.223Z,20.13
2023-01-23T04:44:20.301Z,17.85
2023-01-23T04:46:54.081Z,20.40
2023-01-23T04:49:26.453Z,17.33
2023-01-23T04:51:58.553Z,18.25
2023-01-23T04:54:30.541Z,16.65
2023-01-23T04:57:02.565Z,20.08
2023-01-23T04:59:34.628Z,18.63
2023-01-23T05:02:06.675Z,18.17
2023-01-23T05:04:38.777Z,16.67
2023-01-23T05:07:12.300Z,16.70
2023-01-23T05:09:44.568Z,14.73
2023-01-23T05:12:16.630Z,15.75
2023-01-23T05:14:48.692Z,20.42
2023-01-23T05:17:20.802Z,18.55
2023-01-23T05:19:53.964Z,18.00
2023-01-23T05:22:26.178Z,18.90
2023-01-23T05:24:58.215Z,20.38
2023-01-23T05:27:30.656Z,16.48
2023-01-23T05:30:02.766Z,19.45
2023-01-23T05:32:35.437Z,18.73
2023-01-23T05:35:08.327Z,18.25
2023-01-23T05:37:40.830Z,19.35
2023-01-23T05:40:13.608Z,16.10
2023-01-23T05:42:46.113Z,17.77
2023-01-23T05:45:19.716Z,16.02
2023-01-23T05:47:52.505Z,23.25
2023-01-23T05:50:27.070Z,18.15
2023-01-23T05:52:59.007Z,18.73
2023-01-23T05:55:31.332Z,18.88
2023-01-23T05:58:03.370Z,18.77
2023-01-23T06:00:35.483Z,15.43
2023-01-23T06:03:07.756Z,16.10
2023-01-23T06:05:41.339Z,18.52
2023-01-23T06:08:13.409Z,18.65
2023-01-23T06:10:45.560Z,16.17
2023-01-23T06:13:17.623Z,18.00
2023-01-23T06:15:49.630Z,16.02
2023-01-23T06:18:22.247Z,18.95
2023-01-23T06:21:01.331Z,17.23
2023-01-23T06:23:33.711Z,20.60
2023-01-23T06:26:05.960Z,18.40
2023-01-23T06:28:38.139Z,17.58
2023-01-23T06:31:10.746Z,14.93
2023-01-23T06:33:43.196Z,20.55
2023-01-23T06:36:15.282Z,14.65
2023-01-23T06:38:47.748Z,18.05
2023-01-23T06:41:20.480Z,18.42
2023-01-23T06:43:53.742Z,18.35
2023-01-23T06:46:26.122Z,17.90
2023-01-23T06:48:58.283Z,18.45
2023-01-23T06:51:30.675Z,20.10
2023-01-23T06:54:03.666Z,19.15
2023-01-23T06:56:35.853Z,19.08
2023-01-23T06:59:08.192Z,17.98
2023-01-23T07:01:40.352Z,18.48
2023-01-23T07:04:13.261Z,20.63
2023-01-23T07:06:45.363Z,18.05
2023-01-23T07:09:18.955Z,20.10
2023-01-23T07:11:51.408Z,18.65
2023-01-23T07:14:23.545Z,18.85
2023-01-23T07:16:57.867Z,19.90
2023-01-23T07:19:29.926Z,18.52
2023-01-23T07:22:02.027Z,17.52
2023-01-23T07:24:34.427Z,17.75
2023-01-23T07:27:18.831Z,19.35
2023-01-23T07:29:51.511Z,17.67
2023-01-23T07:32:23.580Z,19.30
2023-01-23T07:34:55.773Z,20.60
2023-01-23T07:37:27.768Z,16.55
2023-01-23T07:39:59.792Z,21.90
2023-01-23T07:42:31.922Z,19.88
2023-01-23T07:45:04.165Z,19.88
2023-01-23T07:47:39.887Z,21.08
2023-01-23T07:50:13.062Z,16.55
2023-01-23T07:52:45.290Z,20.17
2023-01-23T07:55:18.493Z,22.90
2023-01-23T07:57:51.752Z,23.50
2023-01-23T08:00:25.700Z,24.35
2023-01-23T08:03:00.800Z,23.42
2023-01-23T08:05:32.853Z,24.13
2023-01-23T08:08:13.069Z,23.00
2023-01-23T08:10:46.267Z,19.50
2023-01-23T08:16:20.269Z,19.23
2023-01-23T08:18:52.682Z,22.55
2023-01-23T08:21:34.136Z,19.98
2023-01-23T08:24:07.289Z,22.45
2023-01-23T08:26:42.713Z,24.58
2023-01-23T08:29:15.148Z,23.33
2023-01-23T08:31:47.309Z,21.25
2023-01-23T08:34:37.933Z,22.92
2023-01-23T08:37:13.128Z,25.95
2023-01-23T08:39:45.441Z,21.38
2023-01-23T08:42:17.881Z,21.83
2023-01-23T08:44:50.245Z,25.77
2023-01-23T08:47:22.330Z,21.45
2023-01-23T08:49:55.589Z,23.05
2023-01-23T08:52:27.573Z,24.35
2023-01-23T08:55:18.077Z,19.75
2023-01-23T08:57:53.204Z,21.63
2023-01-23T09:00:25.596Z,27.50
2023-01-23T09:03:00.899Z,20.73
2023-01-23T09:05:42.718Z,23.75
2023-01-23T09:08:14.932Z,17.98
2023-01-23T09:10:47.220Z,21.70
2023-01-23T09:13:19.956Z,16.42
2023-01-23T09:15:52.274Z,18.75
2023-01-23T09:18:26.854Z,21.92
2023-01-23T09:20:59.530Z,19.67
2023-01-23T09:23:37.269Z,19.88
2023-01-23T09:26:12.659Z,18.05
2023-01-23T09:28:45.536Z,17.55
2023-01-23T09:31:17.839Z,18.63
2023-01-23T09:33:50.337Z,19.45
2023-01-23T09:36:33.817Z,16.00
2023-01-23T09:39:14.368Z,17.08
2023-01-23T09:41:49.007Z,17.60
2023-01-23T09:44:36.978Z,18.65
2023-01-23T09:47:20.990Z,19.10
2023-01-23T09:50:03.632Z,18.02
2023-01-23T09:52:48.539Z,15.95
2023-01-23T09:56:21.072Z,16.17
2023-01-23T09:59:19.718Z,15.57
2023-01-23T10:02:26.782Z,14.30
2023-01-23T10:05:13.807Z,12.43
2023-01-23T10:08:06.318Z,15.77
2023-01-23T10:11:04.052Z,15.65
2023-01-23T10:14:42.023Z,12.73
2023-01-23T10:18:18.283Z,14.82
2023-01-23T10:21:22.360Z,16.02
2023-01-23T10:24:18.448Z,14.27
2023-01-23T10:27:35.522Z,15.15
2023-01-23T10:30:20.157Z,15.02
2023-01-23T10:33:19.446Z,14.68
2023-01-23T10:36:07.983Z,16.40
2023-01-23T10:39:20.358Z,16.08
2023-01-23T10:42:02.526Z,13.90
2023-01-23T10:44:41.247Z,16.08
2023-01-23T10:47:35.720Z,15.45
2023-01-23T10:50:35.383Z,13.30
2023-01-23T10:53:19.886Z,15.70
2023-01-23T10:55:57.189Z,15.70
2023-01-23T10:58:37.433Z,13.55
2023-01-23T11:01:27.106Z,16.90
2023-01-23T11:04:11.607Z,14.88
2023-01-23T11:07:11.171Z,14.55
2023-01-23T11:09:52.318Z,17.83
2023-01-23T11:12:46.161Z,15.07
2023-01-23T11:15:33.282Z,16.45
2023-01-23T11:18:31.233Z,15.88
2023-01-23T11:21:05.803Z,16.08
2023-01-23T11:24:07.885Z,16.50
2023-01-23T11:27:15.012Z,15.38
2023-01-23T11:30:08.364Z,16.80
2023-01-23T11:33:33.677Z,18.05
2023-01-23T11:36:19.523Z,17.75
2023-01-23T11:39:42.714Z,20.33
2023-01-23T11:42:20.525Z,14.50
2023-01-23T11:44:59.169Z,13.32
2023-01-23T11:47:59.818Z,16.80
2023-01-23T11:51:11.807Z,15.52
2023-01-23T11:54:19.816Z,16.00
2023-01-23T11:57:17.560Z,16.48
2023-01-23T12:00:20.114Z,14.98
2023-01-23T12:03:57.879Z,13.90
2023-01-23T12:07:25.158Z,16.25
2023-01-23T12:10:24.823Z,16.15
2023-01-23T12:13:24.551Z,17.33
2023-01-23T12:16:55.279Z,14.18
2023-01-23T12:19:36.113Z,14.90
2023-01-23T12:22:36.721Z,14.65
2023-01-23T12:25:36.828Z,14.77
2023-01-23T12:28:47.210Z,18.23
2023-01-23T12:31:48.374Z,16.92
2023-01-23T12:34:55.228Z,17.23
2023-01-23T12:37:55.316Z,18.30
2023-01-23T12:40:54.043Z,13.88
2023-01-23T12:44:04.674Z,15.30
2023-01-23T12:46:51.211Z,16.40
2023-01-23T12:49:39.011Z,15.13
2023-01-23T12:52:38.305Z,14.82
2023-01-23T12:55:20.988Z,20.08
2023-01-23T12:58:08.102Z,18.80
2023-01-23T13:01:05.555Z,16.33
2023-01-23T13:04:07.509Z,18.20
2023-01-23T13:07:08.986Z,16.02
2023-01-23T13:10:13.638Z,12.73
2023-01-23T13:13:06.376Z,18.05
2023-01-23T13:15:40.754Z,18.48
2023-01-23T13:18:25.351Z,17.25
2023-01-23T13:21:19.169Z,17.15
2023-01-23T13:24:50.752Z,20.50
2023-01-23T13:28:08.809Z,14.73
2023-01-23T13:31:02.737Z,14.65
2023-01-23T13:33:35.712Z,12.30
2023-01-23T13:36:28.970Z,13.70
2023-01-23T13:39:22.569Z,14.98
2023-01-23T13:42:15.728Z,14.10
2023-01-23T13:45:16.841Z,13.05
2023-01-23T14:22:49.492Z,12.73
2023-01-23T14:25:25.397Z,11.93
2023-01-23T14:28:05.615Z,15.82
2023-01-23T14:30:37.981Z,13.25
2023-01-23T14:33:17.835Z,10.63
2023-01-23T14:35:51.243Z,14.02
2023-01-23T14:38:34.332Z,15.85
2023-01-23T14:41:08.022Z,15.32
2023-01-23T14:43:43.116Z,14.20
2023-01-23T14:46:26.187Z,13.02
2023-01-23T14:49:07.725Z,12.38
2023-01-23T14:51:53.172Z,14.00
2023-01-23T14:58:25.238Z,14.25
2023-01-23T15:00:58.362Z,12.38
2023-01-23T15:03:39.156Z,13.50
2023-01-23T15:06:20.581Z,14.50
2023-01-23T15:08:54.323Z,11.88
2023-01-23T15:11:35.781Z,11.82
2023-01-23T15:14:26.484Z,12.50
2023-01-23T15:17:12.796Z,12.50
2023-01-23T15:19:55.559Z,12.52
2023-01-23T15:22:30.097Z,13.38
2023-01-23T15:25:30.316Z,14.23
2023-01-23T15:28:38.331Z,11.18
2023-01-23T15:31:30.793Z,12.90
2023-01-23T15:34:15.848Z,14.02
2023-01-23T15:37:09.933Z,14.63
2023-01-23T15:40:01.035Z,12.10
2023-01-23T15:43:18.650Z,13.27
2023-01-23T15:45:50.928Z,14.85
2023-01-23T15:48:23.209Z,15.70
2023-01-23T15:50:55.553Z,14.40
2023-01-23T15:53:30.363Z,15.77
2023-01-23T15:56:02.612Z,13.20
2023-01-23T15:58:35.842Z,12.55
2023-01-23T16:01:09.481Z,11.93
2023-01-23T16:03:42.049Z,13.68
2023-01-23T16:06:19.354Z,13.35
2023-01-23T16:09:01.019Z,16.75
2023-01-23T16:15:43.943Z,13.80
2023-01-23T16:18:16.226Z,14.40
2023-01-23T16:20:48.725Z,18.27
2023-01-23T16:23:25.023Z,17.42
2023-01-23T16:25:58.135Z,15.45
2023-01-23T16:28:32.743Z,15.65
2023-01-23T16:31:05.171Z,16.15
2023-01-23T16:33:37.637Z,19.33
2023-01-23T16:36:20.248Z,16.55
2023-01-23T16:38:56.200Z,19.65
2023-01-23T16:41:29.091Z,17.83
2023-01-23T16:44:01.336Z,16.27
2023-01-23T16:46:33.769Z,16.80
2023-01-23T16:49:06.417Z,16.70
2023-01-23T16:51:41.103Z,17.80
2023-01-23T16:54:21.620Z,15.95
2023-01-23T16:56:57.399Z,20.42
2023-01-23T16:59:39.089Z,17.63
2023-01-23T17:02:21.758Z,18.42
2023-01-23T17:04:59.360Z,15.75
2023-01-23T17:07:32.073Z,17.33
2023-01-23T17:10:05.282Z,16.88
2023-01-23T17:12:38.925Z,17.42
2023-01-23T17:15:24.300Z,16.73
2023-01-23T17:18:01.315Z,15.88
2023-01-23T17:20:34.569Z,17.90
2023-01-23T17:23:07.061Z,16.27
2023-01-23T17:25:59.656Z,18.65
2023-01-23T17:28:32.894Z,17.55
2023-01-23T17:31:06.101Z,14.80
2023-01-23T17:33:46.824Z,14.70
2023-01-23T17:36:20.009Z,15.68
2023-01-23T17:38:55.728Z,15.80
2023-01-23T17:41:29.536Z,14.65
2023-01-23T17:44:02.946Z,24.00
2023-01-23T17:46:37.772Z,15.93
2023-01-23T17:49:27.661Z,14.35
2023-01-23T17:52:01.699Z,15.52
2023-01-23T17:54:34.928Z,15.57
2023-01-23T17:57:08.807Z,15.88
2023-01-23T17:59:41.674Z,16.25
2023-01-23T18:02:28.745Z,15.93
2023-01-23T18:05:01.464Z,17.00
2023-01-23T18:07:48.461Z,13.77
2023-01-23T18:10:29.655Z,14.63
2023-01-23T18:13:27.278Z,11.90
2023-01-23T18:16:11.847Z,18.02
2023-01-23T18:19:01.020Z,14.50
2023-01-23T18:21:49.391Z,17.63
2023-01-23T18:24:31.250Z,14.80
2023-01-23T18:27:24.463Z,12.65
2023-01-23T18:30:09.446Z,16.10
2023-01-23T18:33:29.727Z,15.68
2023-01-23T18:36:48.249Z,16.38
2023-01-23T18:39:55.695Z,18.98
2023-01-23T18:43:04.644Z,15.55
2023-01-23T18:45:56.948Z,14.80
2023-01-23T18:48:30.238Z,14.82
2023-01-23T18:51:18.055Z,14.93
2023-01-23T18:54:22.810Z,16.05
2023-01-23T18:57:50.865Z,13.75
2023-01-23T19:00:54.302Z,14.40
2023-01-23T19:03:48.551Z,12.98
2023-01-23T19:06:24.820Z,14.82
2023-01-23T19:09:03.051Z,17.08
2023-01-23T19:12:14.039Z,15.68
2023-01-23T19:15:44.913Z,12.68
2023-01-23T19:18:48.601Z,14.27
2023-01-23T19:21:32.253Z,17.23
2023-01-23T19:24:12.378Z,15.38
2023-01-23T19:26:50.426Z,13.60
2023-01-23T19:29:24.016Z,14.52
2023-01-23T19:32:06.264Z,17.55
2023-01-23T19:34:43.092Z,15.10
2023-01-23T19:37:15.859Z,14.45
2023-01-23T19:39:49.396Z,18.55
2023-01-23T19:42:22.346Z,15.48
2023-01-23T19:44:55.908Z,15.45
2023-01-23T19:47:28.381Z,23.42
2023-01-23T19:50:01.581Z,17.13
2023-01-23T19:52:35.137Z,15.88
2023-01-23T19:55:22.669Z,15.57
2023-01-23T19:57:59.396Z,16.48
2023-01-23T20:00:38.321Z,13.80
2023-01-23T20:03:14.583Z,17.10
2023-01-23T20:05:47.055Z,16.08
2023-01-23T20:08:19.387Z,14.85
2023-01-23T20:10:52.897Z,16.00
2023-01-23T20:13:25.939Z,15.73
2023-01-23T20:15:59.169Z,15.35
2023-01-23T20:18:38.178Z,15.77
2023-01-23T20:21:11.157Z,15.82
2023-01-23T20:23:43.810Z,16.67
2023-01-23T20:26:23.328Z,17.40
2023-01-23T20:28:58.278Z,15.25
2023-01-23T20:31:31.550Z,17.70
2023-01-23T20:34:04.341Z,14.75
2023-01-23T20:36:38.678Z,14.13
2023-01-23T20:39:13.478Z,14.23
2023-01-23T20:41:46.727Z,18.88
2023-01-23T20:44:19.088Z,17.50
2023-01-23T20:46:51.799Z,15.55
2023-01-23T20:49:24.756Z,17.23
2023-01-23T20:52:18.258Z,17.23
2023-01-23T20:55:10.427Z,18.23
2023-01-23T20:58:01.834Z,19.27
2023-01-23T21:00:53.916Z,18.88
2023-01-23T21:03:26.915Z,16.75
2023-01-23T21:05:59.662Z,19.83
2023-01-23T21:08:32.622Z,19.00
2023-01-23T21:11:12.329Z,20.13
2023-01-23T21:13:51.789Z,16.98
2023-01-23T21:16:25.768Z,19.77
2023-01-23T21:18:58.294Z,18.90
2023-01-23T21:21:32.629Z,16.85
2023-01-23T21:24:05.496Z,20.75
2023-01-23T21:26:38.582Z,20.23
2023-01-23T21:29:11.365Z,20.55
2023-01-23T21:31:43.909Z,20.67
2023-01-23T21:34:16.122Z,22.92
2023-01-23T21:36:48.213Z,20.25
2023-01-23T21:39:22.211Z,22.35
2023-01-23T21:41:54.423Z,20.45
2023-01-23T21:48:15.787Z,19.27
2023-01-23T21:50:48.074Z,16.98
2023-01-23T21:53:20.696Z,17.55
2023-01-23T21:55:53.099Z,18.75
2023-01-23T21:58:25.335Z,16.17
2023-01-23T22:01:46.783Z,18.27
2023-01-23T22:04:23.620Z,16.52
2023-01-23T22:06:58.619Z,20.25
2023-01-23T22:09:31.127Z,19.02
2023-01-23T22:12:03.544Z,19.45
2023-01-23T22:14:36.704Z,19.38
2023-01-23T22:17:09.727Z,16.42
2023-01-23T22:19:43.923Z,16.92
2023-01-23T22:22:16.257Z,17.08
2023-01-23T22:24:50.572Z,18.50
2023-01-23T22:27:23.381Z,20.38
2023-01-23T22:29:55.477Z,17.77
2023-01-23T22:32:27.844Z,19.27
2023-01-23T22:35:00.299Z,18.95
2023-01-23T22:37:32.712Z,18.45
2023-01-23T22:40:05.623Z,19.33
2023-01-23T22:42:38.961Z,18.42
2023-01-23T22:45:11.569Z,20.50
2023-01-23T22:47:43.965Z,22.00
2023-01-23T22:50:17.097Z,17.55
2023-01-23T22:52:49.386Z,18.42
2023-01-23T22:55:21.654Z,19.27
2023-01-23T22:57:53.856Z,22.52
2023-01-23T23:00:25.964Z,20.70
2023-01-23T23:02:58.033Z,17.30
2023-01-23T23:05:30.160Z,18.65
2023-01-23T23:08:02.157Z,18.42
2023-01-23T23:10:34.324Z,20.23
2023-01-23T23:13:06.656Z,15.68
2023-01-23T23:15:38.711Z,21.30
2023-01-23T23:18:10.835Z,18.25
2023-01-23T23:20:42.922Z,18.23
2023-01-23T23:23:15.021Z,19.10
2023-01-23T23:25:47.203Z,20.92
2023-01-23T23:28:25.227Z,20.60
2023-01-23T23:30:58.351Z,19.08
2023-01-23T23:33:31.008Z,23.92
2023-01-23T23:36:20.676Z,19.95
2023-01-23T23:38:52.732Z,20.23
2023-01-23T23:41:24.974Z,18.05
2023-01-23T23:43:57.229Z,19.15
2023-01-23T23:46:29.446Z,20.60
2023-01-23T23:49:01.606Z,19.60
2023-01-23T23:51:33.973Z,19.08
2023-01-23T23:54:06.064Z,19.38
2023-01-23T23:56:38.219Z,20.17
2023-01-23T23:59:15.985Z,18.85
